createdAt,value
2023-04-17T00:00:59.220Z,95335.00
2023-04-17T00:01:59.320Z,95335.00
2023-04-17T00:02:59.557Z,95335.00
2023-04-17T00:03:59.485Z,95335.00
2023-04-17T00:04:59.548Z,95335.00
2023-04-17T00:05:59.502Z,95333.00
2023-04-17T00:06:59.525Z,95333.00
2023-04-17T00:07:59.578Z,95331.00
2023-04-17T00:08:59.557Z,95331.00
2023-04-17T00:09:59.611Z,95329.00
2023-04-17T00:11:07.092Z,95329.00
2023-04-17T00:12:00.664Z,95331.00
2023-04-17T00:12:59.670Z,95331.00
2023-04-17T00:13:59.697Z,95329.00
2023-04-17T00:14:59.667Z,95329.00
2023-04-17T00:15:59.718Z,95333.00
2023-04-17T00:16:59.657Z,95331.00
2023-04-17T00:17:59.687Z,95333.00
2023-04-17T00:18:59.647Z,95333.00
2023-04-17T00:19:59.593Z,95331.00
2023-04-17T00:20:59.689Z,95331.00
2023-04-17T00:21:59.672Z,95331.00
2023-04-17T00:22:59.792Z,95329.00
2023-04-17T00:23:59.825Z,95329.00
2023-04-17T00:24:59.781Z,95331.00
2023-04-17T00:25:59.773Z,95329.00
2023-04-17T00:26:59.816Z,95331.00
2023-04-17T00:27:59.846Z,95331.00
2023-04-17T00:28:59.905Z,95331.00
2023-04-17T00:30:00.030Z,95333.00
2023-04-17T00:30:59.969Z,95331.00
2023-04-17T00:32:00.041Z,95331.00
2023-04-17T00:33:00.034Z,95333.00
2023-04-17T00:34:00.048Z,95331.00
2023-04-17T00:35:00.054Z,95331.00
2023-04-17T00:36:00.106Z,95333.00
2023-04-17T00:37:00.034Z,95331.00
2023-04-17T00:38:00.112Z,95327.00
2023-04-17T00:39:00.100Z,95329.00
2023-04-17T00:40:00.178Z,95331.00
2023-04-17T00:41:00.163Z,95329.00
2023-04-17T00:42:00.162Z,95327.00
2023-04-17T00:43:00.183Z,95325.00
2023-04-17T00:44:00.195Z,95327.00
2023-04-17T00:45:00.287Z,95325.00
2023-04-17T00:46:00.389Z,95325.00
2023-04-17T00:47:00.294Z,95327.00
2023-04-17T00:48:00.499Z,95323.00
2023-04-17T00:49:00.454Z,95323.00
2023-04-17T00:50:00.412Z,95321.00
2023-04-17T00:51:00.491Z,95325.00
2023-04-17T00:52:00.553Z,95325.00
2023-04-17T00:53:00.587Z,95325.00
2023-04-17T00:54:00.655Z,95325.00
2023-04-17T00:55:00.838Z,95325.00
2023-04-17T00:56:00.836Z,95323.00
2023-04-17T00:57:00.890Z,95321.00
2023-04-17T00:58:01.024Z,95325.00
2023-04-17T00:59:01.099Z,95319.00
2023-04-17T01:00:01.235Z,95323.00
2023-04-17T01:01:01.337Z,95319.00
2023-04-17T01:02:01.510Z,95321.00
2023-04-17T01:03:01.637Z,95319.00
2023-04-17T01:04:01.737Z,95321.00
2023-04-17T01:05:01.760Z,95323.00
2023-04-17T01:06:01.855Z,95323.00
2023-04-17T01:07:01.933Z,95323.00
2023-04-17T01:08:01.929Z,95321.00
2023-04-17T01:09:01.879Z,95325.00
2023-04-17T01:10:01.866Z,95325.00
2023-04-17T01:11:01.897Z,95321.00
2023-04-17T01:12:02.022Z,95323.00
2023-04-17T01:13:02.065Z,95321.00
2023-04-17T01:14:02.082Z,95323.00
2023-04-17T01:15:02.026Z,95325.00
2023-04-17T01:16:02.114Z,95325.00
2023-04-17T01:17:02.208Z,95325.00
2023-04-17T01:18:02.287Z,95327.00
2023-04-17T01:19:02.235Z,95327.00
2023-04-17T01:20:02.213Z,95327.00
2023-04-17T01:21:02.314Z,95327.00
2023-04-17T01:22:02.324Z,95329.00
2023-04-17T01:23:02.394Z,95327.00
2023-04-17T01:24:02.384Z,95325.00
2023-04-17T01:25:02.390Z,95325.00
2023-04-17T01:26:02.364Z,95323.00
2023-04-17T01:27:02.459Z,95325.00
2023-04-17T01:28:02.589Z,95323.00
2023-04-17T01:29:02.537Z,95323.00
2023-04-17T01:30:02.564Z,95323.00
2023-04-17T01:31:02.563Z,95325.00
2023-04-17T01:32:02.569Z,95321.00
2023-04-17T01:33:02.664Z,95319.00
2023-04-17T01:34:02.568Z,95319.00
2023-04-17T01:35:02.531Z,95319.00
2023-04-17T01:36:02.568Z,95321.00
2023-04-17T01:37:02.640Z,95317.00
2023-04-17T01:38:02.575Z,95321.00
2023-04-17T01:39:02.639Z,95317.00
2023-04-17T01:40:02.626Z,95317.00
2023-04-17T01:41:02.670Z,95317.00
2023-04-17T01:42:02.761Z,95317.00
2023-04-17T01:43:02.825Z,95317.00
2023-04-17T01:44:02.829Z,95319.00
2023-04-17T01:45:02.934Z,95319.00
2023-04-17T01:46:03.003Z,95317.00
2023-04-17T01:47:03.027Z,95321.00
2023-04-17T01:48:03.159Z,95321.00
2023-04-17T01:49:03.131Z,95319.00
2023-04-17T01:50:03.176Z,95319.00
2023-04-17T01:51:03.179Z,95323.00
2023-04-17T01:52:03.309Z,95323.00
2023-04-17T01:53:03.377Z,95321.00
2023-04-17T01:54:03.389Z,95321.00
2023-04-17T01:55:03.478Z,95319.00
2023-04-17T01:56:03.495Z,95321.00
2023-04-17T01:57:03.574Z,95321.00
2023-04-17T01:58:03.601Z,95323.00
2023-04-17T01:59:03.646Z,95325.00
2023-04-17T02:00:03.726Z,95317.00
2023-04-17T02:01:03.762Z,95319.00
2023-04-17T02:02:03.911Z,95319.00
2023-04-17T02:03:04.031Z,95321.00
2023-04-17T02:04:04.008Z,95319.00
2023-04-17T02:05:04.006Z,95317.00
2023-04-17T02:06:04.055Z,95319.00
2023-04-17T02:07:04.095Z,95317.00
2023-04-17T02:08:04.100Z,95317.00
2023-04-17T02:09:04.129Z,95319.00
2023-04-17T02:10:04.154Z,95319.00
2023-04-17T02:11:04.129Z,95319.00
2023-04-17T02:12:04.204Z,95317.00
2023-04-17T02:13:04.251Z,95317.00
2023-04-17T02:14:04.167Z,95317.00
2023-04-17T02:15:04.172Z,95319.00
2023-04-17T02:16:04.303Z,95317.00
2023-04-17T02:17:04.287Z,95317.00
2023-04-17T02:18:04.446Z,95317.00
2023-04-17T02:19:04.455Z,95317.00
2023-04-17T02:20:04.585Z,95317.00
2023-04-17T02:21:04.685Z,95319.00
2023-04-17T02:22:04.841Z,95323.00
2023-04-17T02:23:04.877Z,95321.00
2023-04-17T02:24:04.957Z,95323.00
2023-04-17T02:25:04.914Z,95323.00
2023-04-17T02:26:04.933Z,95323.00
2023-04-17T02:27:04.939Z,95323.00
2023-04-17T02:28:04.942Z,95323.00
2023-04-17T02:29:05.074Z,95325.00
2023-04-17T02:30:05.086Z,95325.00
2023-04-17T02:31:05.198Z,95323.00
2023-04-17T02:32:05.212Z,95325.00
2023-04-17T02:33:05.376Z,95325.00
2023-04-17T02:34:05.320Z,95325.00
2023-04-17T02:35:05.392Z,95323.00
2023-04-17T02:36:05.447Z,95319.00
2023-04-17T02:37:05.500Z,95321.00
2023-04-17T02:38:05.627Z,95319.00
2023-04-17T02:39:05.636Z,95319.00
2023-04-17T02:40:05.685Z,95321.00
2023-04-17T02:41:05.733Z,95321.00
2023-04-17T02:42:05.823Z,95319.00
2023-04-17T02:43:05.909Z,95323.00
2023-04-17T02:44:05.939Z,95323.00
2023-04-17T02:45:05.988Z,95323.00
2023-04-17T02:46:06.064Z,95321.00
2023-04-17T02:47:06.103Z,95319.00
2023-04-17T02:48:06.348Z,95317.00
2023-04-17T02:49:06.207Z,95321.00
2023-04-17T02:50:06.285Z,95317.00
2023-04-17T02:51:06.318Z,95317.00
2023-04-17T02:52:06.368Z,95323.00
2023-04-17T02:53:06.474Z,95319.00
2023-04-17T02:54:06.462Z,95321.00
2023-04-17T02:55:06.542Z,95317.00
2023-04-17T02:56:06.556Z,95317.00
2023-04-17T02:57:06.565Z,95319.00
2023-04-17T02:58:06.672Z,95315.00
2023-04-17T02:59:06.678Z,95317.00
2023-04-17T03:00:06.697Z,95315.00
2023-04-17T03:01:06.871Z,95315.00
2023-04-17T03:02:06.863Z,95315.00
2023-04-17T03:03:06.990Z,95315.00
2023-04-17T03:04:06.977Z,95313.00
2023-04-17T03:05:06.916Z,95313.00
2023-04-17T03:06:07.013Z,95313.00
2023-04-17T03:07:07.046Z,95313.00
2023-04-17T03:08:07.169Z,95311.00
2023-04-17T03:09:07.261Z,95313.00
2023-04-17T03:10:07.414Z,95311.00
2023-04-17T03:11:07.473Z,95313.00
2023-04-17T03:12:07.571Z,95315.00
2023-04-17T03:13:07.660Z,95317.00
2023-04-17T03:14:07.721Z,95317.00
2023-04-17T03:15:08.921Z,95317.00
2023-04-17T03:16:07.857Z,95323.00
2023-04-17T03:17:07.897Z,95321.00
2023-04-17T03:18:08.098Z,95323.00
2023-04-17T03:19:08.118Z,95321.00
2023-04-17T03:20:08.173Z,95321.00
2023-04-17T03:21:08.263Z,95321.00
2023-04-17T03:22:08.347Z,95321.00
2023-04-17T03:23:08.394Z,95319.00
2023-04-17T03:24:08.473Z,95323.00
2023-04-17T03:25:08.481Z,95319.00
2023-04-17T03:26:08.526Z,95315.00
2023-04-17T03:27:08.519Z,95319.00
2023-04-17T03:28:08.499Z,95319.00
2023-04-17T03:29:08.581Z,95319.00
2023-04-17T03:30:08.648Z,95321.00
2023-04-17T03:31:08.580Z,95319.00
2023-04-17T03:32:08.645Z,95321.00
2023-04-17T03:33:08.655Z,95323.00
2023-04-17T03:34:08.657Z,95325.00
2023-04-17T03:35:08.720Z,95325.00
2023-04-17T03:36:08.775Z,95325.00
2023-04-17T03:37:08.781Z,95327.00
2023-04-17T03:38:08.795Z,95329.00
2023-04-17T03:39:08.787Z,95327.00
2023-04-17T03:40:08.773Z,95329.00
2023-04-17T03:41:08.790Z,95331.00
2023-04-17T03:42:08.875Z,95331.00
2023-04-17T03:43:08.784Z,95329.00
2023-04-17T03:44:08.788Z,95333.00
2023-04-17T03:45:08.774Z,95331.00
2023-04-17T03:46:08.876Z,95333.00
2023-04-17T03:47:08.874Z,95333.00
2023-04-17T03:48:08.933Z,95335.00
2023-04-17T03:49:08.849Z,95335.00
2023-04-17T03:50:08.858Z,95335.00
2023-04-17T03:51:08.918Z,95337.00
2023-04-17T03:52:08.888Z,95335.00
2023-04-17T03:53:08.895Z,95341.00
2023-04-17T03:54:08.929Z,95339.00
2023-04-17T03:55:08.918Z,95341.00
2023-04-17T03:56:08.903Z,95341.00
2023-04-17T03:57:08.987Z,95341.00
2023-04-17T03:58:08.941Z,95343.00
2023-04-17T03:59:08.978Z,95341.00
2023-04-17T04:00:08.936Z,95343.00
2023-04-17T04:01:08.928Z,95345.00
2023-04-17T04:02:09.061Z,95345.00
2023-04-17T04:03:09.139Z,95347.00
2023-04-17T04:04:09.020Z,95347.00
2023-04-17T04:05:09.066Z,95345.00
2023-04-17T04:06:08.948Z,95347.00
2023-04-17T04:07:08.976Z,95345.00
2023-04-17T04:08:09.004Z,95345.00
2023-04-17T04:09:09.034Z,95347.00
2023-04-17T04:10:09.009Z,95347.00
2023-04-17T04:11:08.994Z,95345.00
2023-04-17T04:12:09.026Z,95347.00
2023-04-17T04:13:09.032Z,95345.00
2023-04-17T04:14:08.990Z,95345.00
2023-04-17T04:15:09.009Z,95341.00
2023-04-17T04:16:09.084Z,95343.00
2023-04-17T04:17:09.089Z,95343.00
2023-04-17T04:18:09.139Z,95341.00
2023-04-17T04:19:09.193Z,95343.00
2023-04-17T04:20:09.103Z,95343.00
2023-04-17T04:21:09.147Z,95343.00
2023-04-17T04:22:09.142Z,95343.00
2023-04-17T04:23:09.176Z,95339.00
2023-04-17T04:24:09.140Z,95341.00
2023-04-17T04:25:09.169Z,95341.00
2023-04-17T04:26:09.248Z,95341.00
2023-04-17T04:27:09.272Z,95341.00
2023-04-17T04:28:09.296Z,95343.00
2023-04-17T04:29:10.067Z,95341.00
2023-04-17T04:30:09.305Z,95343.00
2023-04-17T04:31:09.300Z,95343.00
2023-04-17T04:32:09.325Z,95341.00
2023-04-17T04:33:09.377Z,95343.00
2023-04-17T04:34:09.329Z,95343.00
2023-04-17T04:35:09.612Z,95343.00
2023-04-17T04:36:09.460Z,95341.00
2023-04-17T04:37:09.505Z,95341.00
2023-04-17T04:38:10.600Z,95341.00
2023-04-17T04:39:09.920Z,95341.00
2023-04-17T04:40:09.520Z,95341.00
2023-04-17T04:41:09.484Z,95341.00
2023-04-17T04:42:09.534Z,95341.00
2023-04-17T04:43:09.560Z,95341.00
2023-04-17T04:44:09.549Z,95339.00
2023-04-17T04:45:09.526Z,95337.00
2023-04-17T04:46:09.589Z,95341.00
2023-04-17T04:47:09.649Z,95341.00
2023-04-17T04:48:09.640Z,95341.00
2023-04-17T04:49:09.797Z,95339.00
2023-04-17T04:50:09.624Z,95341.00
2023-04-17T04:51:09.688Z,95343.00
2023-04-17T04:52:09.632Z,95343.00
2023-04-17T04:53:09.608Z,95345.00
2023-04-17T04:54:09.634Z,95345.00
2023-04-17T04:55:09.664Z,95345.00
2023-04-17T04:56:09.687Z,95345.00
2023-04-17T04:57:09.686Z,95349.00
2023-04-17T04:58:09.905Z,95349.00
2023-04-17T04:59:09.953Z,95351.00
2023-04-17T05:00:09.776Z,95351.00
2023-04-17T05:02:29.903Z,95353.00
2023-04-17T05:03:29.615Z,95355.00
2023-04-17T05:04:29.490Z,95355.00
2023-04-17T05:05:29.439Z,95349.00
2023-04-17T05:06:29.414Z,95353.00
2023-04-17T05:07:29.430Z,95355.00
2023-04-17T05:08:29.409Z,95356.00
2023-04-17T05:09:29.423Z,95355.00
2023-04-17T05:10:29.515Z,95353.00
2023-04-17T05:11:29.412Z,95356.00
2023-04-17T05:12:29.419Z,95358.00
2023-04-17T05:13:29.453Z,95358.00
2023-04-17T05:14:30.083Z,95358.00
2023-04-17T05:15:29.410Z,95356.00
2023-04-17T05:16:29.410Z,95361.00
2023-04-17T05:17:29.391Z,95358.00
2023-04-17T05:18:29.450Z,95356.00
2023-04-17T05:19:29.369Z,95361.00
2023-04-17T05:20:29.371Z,95361.00
2023-04-17T05:21:31.099Z,95358.00
2023-04-17T05:22:29.346Z,95361.00
2023-04-17T05:23:29.416Z,95363.00
2023-04-17T05:24:29.339Z,95364.00
2023-04-17T05:25:29.766Z,95358.00
2023-04-17T05:26:29.367Z,95364.00
2023-04-17T05:27:29.754Z,95366.00
2023-04-17T05:28:29.777Z,95368.00
2023-04-17T05:29:29.386Z,95366.00
2023-04-17T05:30:29.932Z,95368.00
2023-04-17T05:31:29.580Z,95370.00
2023-04-17T05:32:29.603Z,95370.00
2023-04-17T05:33:29.628Z,95372.00
2023-04-17T05:34:30.025Z,95374.00
2023-04-17T05:35:29.651Z,95372.00
2023-04-17T05:36:30.832Z,95372.00
2023-04-17T05:37:30.139Z,95374.00
2023-04-17T05:38:30.953Z,95370.00
2023-04-17T05:39:30.211Z,95374.00
2023-04-17T05:40:31.236Z,95378.00
2023-04-17T05:41:30.095Z,95378.00
2023-04-17T05:42:30.447Z,95374.00
2023-04-17T05:43:30.068Z,95376.00
2023-04-17T05:44:30.176Z,95374.00
2023-04-17T05:46:57.552Z,95376.00
2023-04-17T05:47:49.926Z,95380.00
2023-04-17T05:48:50.354Z,95376.00
2023-04-17T05:49:49.982Z,95380.00
2023-04-17T05:50:49.845Z,95378.00
2023-04-17T05:51:49.843Z,95376.00
2023-04-17T05:52:49.855Z,95378.00
2023-04-17T05:53:49.889Z,95378.00
2023-04-17T05:54:49.828Z,95378.00
2023-04-17T05:55:49.881Z,95374.00
2023-04-17T05:56:49.843Z,95376.00
2023-04-17T05:57:49.893Z,95378.00
2023-04-17T05:58:50.333Z,95376.00
2023-04-17T05:59:49.829Z,95374.00
2023-04-17T06:00:49.829Z,95374.00
2023-04-17T06:01:49.904Z,95376.00
2023-04-17T06:02:49.957Z,95376.00
2023-04-17T06:03:50.073Z,95374.00
2023-04-17T06:04:50.056Z,95374.00
2023-04-17T06:05:49.916Z,95378.00
2023-04-17T06:06:49.881Z,95380.00
2023-04-17T06:07:49.892Z,95378.00
2023-04-17T06:08:50.373Z,95380.00
2023-04-17T06:09:49.989Z,95380.00
2023-04-17T06:10:50.060Z,95382.00
2023-04-17T06:11:50.026Z,95384.00
2023-04-17T06:12:49.994Z,95386.00
2023-04-17T06:13:50.045Z,95384.00
2023-04-17T06:14:50.034Z,95384.00
2023-04-17T06:15:50.056Z,95388.00
2023-04-17T06:16:50.136Z,95390.00
2023-04-17T06:17:50.179Z,95392.00
2023-04-17T06:18:50.061Z,95390.00
2023-04-17T06:19:50.136Z,95386.00
2023-04-17T06:20:50.094Z,95388.00
2023-04-17T06:21:50.105Z,95388.00
2023-04-17T06:22:50.104Z,95390.00
2023-04-17T06:23:50.171Z,95392.00
2023-04-17T06:24:50.111Z,95390.00
2023-04-17T06:25:50.175Z,95392.00
2023-04-17T06:26:50.133Z,95394.00
2023-04-17T06:27:50.132Z,95398.00
2023-04-17T06:28:50.224Z,95394.00
2023-04-17T06:29:50.873Z,95398.00
2023-04-17T06:30:50.342Z,95403.00
2023-04-17T06:31:50.230Z,95400.00
2023-04-17T06:32:50.231Z,95402.00
2023-04-17T06:33:50.233Z,95400.00
2023-04-17T06:34:59.063Z,95400.00
2023-04-17T06:35:51.285Z,95400.00
2023-04-17T06:36:50.252Z,95402.00
2023-04-17T06:37:50.251Z,95402.00
2023-04-17T06:38:50.201Z,95402.00
2023-04-17T06:39:50.425Z,95400.00
2023-04-17T06:40:52.476Z,95400.00
2023-04-17T06:41:50.384Z,95403.00
2023-04-17T06:42:50.373Z,95403.00
2023-04-17T06:43:50.406Z,95400.00
2023-04-17T06:44:50.451Z,95402.00
2023-04-17T06:45:50.388Z,95400.00
2023-04-17T06:46:50.648Z,95402.00
2023-04-17T06:47:50.514Z,95402.00
2023-04-17T06:48:50.457Z,95403.00
2023-04-17T06:49:50.483Z,95403.00
2023-04-17T06:50:50.484Z,95402.00
2023-04-17T06:51:50.537Z,95403.00
2023-04-17T06:52:50.632Z,95405.00
2023-04-17T06:53:50.719Z,95405.00
2023-04-17T06:54:50.836Z,95403.00
2023-04-17T06:55:50.772Z,95402.00
2023-04-17T06:56:50.840Z,95407.00
2023-04-17T06:57:50.843Z,95409.00
2023-04-17T06:58:50.849Z,95407.00
2023-04-17T06:59:50.972Z,95411.00
2023-04-17T07:00:50.935Z,95409.00
2023-04-17T07:01:51.128Z,95407.00
2023-04-17T07:02:51.760Z,95409.00
2023-04-17T07:03:51.085Z,95411.00
2023-04-17T07:04:51.075Z,95411.00
2023-04-17T07:05:51.015Z,95409.00
2023-04-17T07:06:51.000Z,95413.00
2023-04-17T07:07:50.955Z,95411.00
2023-04-17T07:08:51.566Z,95411.00
2023-04-17T07:09:50.961Z,95413.00
2023-04-17T07:10:51.888Z,95413.00
2023-04-17T07:11:51.048Z,95411.00
2023-04-17T07:12:51.152Z,95413.00
2023-04-17T07:13:51.156Z,95411.00
2023-04-17T07:14:51.204Z,95413.00
2023-04-17T07:15:51.330Z,95413.00
2023-04-17T07:16:51.321Z,95427.00
2023-04-17T07:17:51.259Z,95427.00
2023-04-17T07:18:51.180Z,95427.00
2023-04-17T07:19:51.199Z,95427.00
2023-04-17T07:20:51.206Z,95427.00
2023-04-17T07:21:51.202Z,95429.00
2023-04-17T07:22:51.249Z,95429.00
2023-04-17T07:23:51.221Z,95431.00
2023-04-17T07:24:51.313Z,95431.00
2023-04-17T07:25:51.362Z,95429.00
2023-04-17T07:26:51.295Z,95431.00
2023-04-17T07:27:51.347Z,95431.00
2023-04-17T07:28:51.366Z,95429.00
2023-04-17T07:29:51.273Z,95431.00
2023-04-17T07:30:51.327Z,95427.00
2023-04-17T07:31:52.500Z,95431.00
2023-04-17T07:32:51.487Z,95429.00
2023-04-17T07:33:51.416Z,95431.00
2023-04-17T07:34:51.856Z,95433.00
2023-04-17T07:35:51.395Z,95433.00
2023-04-17T07:36:51.480Z,95429.00
2023-04-17T07:37:52.462Z,95431.00
2023-04-17T07:38:51.518Z,95431.00
2023-04-17T07:39:51.838Z,95431.00
2023-04-17T07:40:51.648Z,95427.00
2023-04-17T07:41:51.643Z,95429.00
2023-04-17T07:42:51.954Z,95427.00
2023-04-17T07:43:51.709Z,95429.00
2023-04-17T07:44:51.871Z,95429.00
2023-04-17T07:45:51.788Z,95429.00
2023-04-17T07:46:51.856Z,95431.00
2023-04-17T07:47:52.377Z,95429.00
2023-04-17T07:48:51.873Z,95427.00
2023-04-17T07:49:51.797Z,95417.00
2023-04-17T07:50:51.850Z,95425.00
2023-04-17T07:51:51.926Z,95427.00
2023-04-17T07:52:51.955Z,95417.00
2023-04-17T07:53:52.046Z,95417.00
2023-04-17T07:54:52.032Z,95417.00
2023-04-17T07:55:52.092Z,95417.00
2023-04-17T07:56:52.501Z,95415.00
2023-04-17T07:57:52.140Z,95413.00
2023-04-17T07:58:52.175Z,95415.00
2023-04-17T07:59:52.195Z,95415.00
2023-04-17T08:00:52.231Z,95415.00
2023-04-17T08:01:52.410Z,95413.00
2023-04-17T08:02:52.575Z,95415.00
2023-04-17T08:03:52.582Z,95417.00
2023-04-17T08:04:52.705Z,95417.00
2023-04-17T08:05:52.421Z,95417.00
2023-04-17T08:06:52.450Z,95415.00
2023-04-17T08:07:52.449Z,95417.00
2023-04-17T08:08:52.546Z,95417.00
2023-04-17T08:09:52.869Z,95425.00
2023-04-17T08:10:52.489Z,95417.00
2023-04-17T08:11:57.592Z,95417.00
2023-04-17T08:12:53.494Z,95417.00
2023-04-17T08:13:52.574Z,95425.00
2023-04-17T08:14:52.432Z,95425.00
2023-04-17T08:15:52.452Z,95427.00
2023-04-17T08:16:52.497Z,95425.00
2023-04-17T08:17:52.532Z,95425.00
2023-04-17T08:18:52.423Z,95427.00
2023-04-17T08:19:52.429Z,95415.00
2023-04-17T08:20:52.370Z,95417.00
2023-04-17T08:21:52.438Z,95417.00
2023-04-17T08:22:52.440Z,95417.00
2023-04-17T08:23:52.389Z,95415.00
2023-04-17T08:24:52.904Z,95413.00
2023-04-17T08:25:52.380Z,95413.00
2023-04-17T08:26:52.369Z,95413.00
2023-04-17T08:27:52.913Z,95411.00
2023-04-17T08:28:52.324Z,95411.00
2023-04-17T08:29:52.429Z,95409.00
2023-04-17T08:30:52.357Z,95409.00
2023-04-17T08:32:00.301Z,95405.00
2023-04-17T08:32:53.418Z,95403.00
2023-04-17T08:33:56.966Z,95409.00
2023-04-17T08:34:54.165Z,95409.00
2023-04-17T08:35:52.961Z,95407.00
2023-04-17T08:36:52.543Z,95405.00
2023-04-17T08:37:52.590Z,95405.00
2023-04-17T08:38:52.667Z,95402.00
2023-04-17T08:39:52.782Z,95405.00
2023-04-17T08:40:52.883Z,95405.00
2023-04-17T08:41:52.780Z,95403.00
2023-04-17T08:42:52.786Z,95402.00
2023-04-17T08:43:52.821Z,95402.00
2023-04-17T08:44:52.803Z,95398.00
2023-04-17T08:45:53.047Z,95400.00
2023-04-17T08:46:53.063Z,95398.00
2023-04-17T08:47:52.876Z,95400.00
2023-04-17T08:48:52.936Z,95396.00
2023-04-17T08:49:53.872Z,95396.00
2023-04-17T08:50:53.375Z,95394.00
2023-04-17T08:51:53.079Z,95392.00
2023-04-17T08:52:53.167Z,95392.00
2023-04-17T08:53:53.149Z,95388.00
2023-04-17T08:54:53.161Z,95390.00
2023-04-17T08:55:53.413Z,95388.00
2023-04-17T08:56:53.186Z,95388.00
2023-04-17T08:57:53.299Z,95390.00
2023-04-17T08:58:53.244Z,95386.00
2023-04-17T08:59:53.347Z,95390.00
2023-04-17T09:00:53.353Z,95386.00
2023-04-17T09:01:53.437Z,95388.00
2023-04-17T09:02:53.635Z,95390.00
2023-04-17T09:03:55.545Z,95384.00
2023-04-17T09:04:53.812Z,95382.00
2023-04-17T09:05:53.973Z,95384.00
2023-04-17T09:06:57.447Z,95382.00
2023-04-17T09:07:54.617Z,95380.00
2023-04-17T09:08:53.574Z,95380.00
2023-04-17T09:09:53.738Z,95382.00
2023-04-17T09:10:53.697Z,95380.00
2023-04-17T09:11:54.250Z,95378.00
2023-04-17T09:12:53.543Z,95376.00
2023-04-17T09:13:53.569Z,95376.00
2023-04-17T09:14:53.654Z,95374.00
2023-04-17T09:15:54.237Z,95374.00
2023-04-17T09:16:53.546Z,95376.00
2023-04-17T09:17:53.742Z,95374.00
2023-04-17T09:18:53.549Z,95372.00
2023-04-17T09:19:53.540Z,95372.00
2023-04-17T09:20:54.029Z,95372.00
2023-04-17T09:21:53.535Z,95376.00
2023-04-17T09:22:53.513Z,95370.00
2023-04-17T09:23:53.490Z,95370.00
2023-04-17T09:24:55.715Z,95372.00
2023-04-17T09:25:54.417Z,95370.00
2023-04-17T09:26:53.500Z,95368.00
2023-04-17T09:27:53.512Z,95370.00
2023-04-17T09:28:53.503Z,95366.00
2023-04-17T09:29:53.459Z,95368.00
2023-04-17T09:30:53.491Z,95370.00
2023-04-17T09:31:53.457Z,95366.00
2023-04-17T09:32:53.509Z,95370.00
2023-04-17T09:33:54.487Z,95366.00
2023-04-17T09:34:53.449Z,95364.00
2023-04-17T09:35:53.467Z,95363.00
2023-04-17T09:36:53.411Z,95361.00
2023-04-17T09:37:53.469Z,95366.00
2023-04-17T09:38:54.415Z,95361.00
2023-04-17T09:39:53.420Z,95361.00
2023-04-17T09:40:53.905Z,95361.00
2023-04-17T09:41:53.460Z,95358.00
2023-04-17T09:42:53.430Z,95358.00
2023-04-17T09:43:53.408Z,95361.00
2023-04-17T09:44:53.457Z,95353.00
2023-04-17T09:45:53.418Z,95355.00
2023-04-17T09:46:53.402Z,95356.00
2023-04-17T09:47:53.393Z,95356.00
2023-04-17T09:48:53.352Z,95355.00
2023-04-17T09:49:53.406Z,95356.00
2023-04-17T09:50:53.356Z,95358.00
2023-04-17T09:51:53.386Z,95363.00
2023-04-17T09:52:53.343Z,95356.00
2023-04-17T09:53:53.382Z,95356.00
2023-04-17T09:54:53.501Z,95356.00
2023-04-17T09:55:53.299Z,95356.00
2023-04-17T09:56:53.412Z,95358.00
2023-04-17T09:57:53.331Z,95358.00
2023-04-17T09:58:53.318Z,95358.00
2023-04-17T09:59:53.308Z,95361.00
2023-04-17T10:00:53.316Z,95361.00
2023-04-17T10:01:53.345Z,95363.00
2023-04-17T10:02:53.329Z,95361.00
2023-04-17T10:03:53.447Z,95361.00
2023-04-17T10:04:53.294Z,95364.00
2023-04-17T10:05:53.457Z,95358.00
2023-04-17T10:06:53.155Z,95361.00
2023-04-17T10:07:53.300Z,95356.00
2023-04-17T10:08:53.290Z,95358.00
2023-04-17T10:09:53.223Z,95356.00
2023-04-17T10:10:53.231Z,95361.00
2023-04-17T10:11:53.303Z,95355.00
2023-04-17T10:12:53.236Z,95355.00
2023-04-17T10:13:53.561Z,95355.00
2023-04-17T10:14:53.426Z,95355.00
2023-04-17T10:15:53.433Z,95353.00
2023-04-17T10:16:53.499Z,95355.00
2023-04-17T10:17:53.650Z,95351.00
2023-04-17T10:18:53.571Z,95349.00
2023-04-17T10:19:53.621Z,95351.00
2023-04-17T10:20:54.212Z,95351.00
2023-04-17T10:21:53.765Z,95351.00
2023-04-17T10:22:53.723Z,95353.00
2023-04-17T10:23:53.731Z,95349.00
2023-04-17T10:24:53.872Z,95349.00
2023-04-17T10:25:53.787Z,95349.00
2023-04-17T10:26:53.804Z,95349.00
2023-04-17T10:27:53.818Z,95347.00
2023-04-17T10:28:53.918Z,95349.00
2023-04-17T10:29:53.973Z,95345.00
2023-04-17T10:30:55.102Z,95345.00
2023-04-17T10:31:54.113Z,95347.00
2023-04-17T10:32:54.181Z,95347.00
2023-04-17T10:33:54.169Z,95341.00
2023-04-17T10:34:54.169Z,95345.00
2023-04-17T10:35:54.933Z,95349.00
2023-04-17T10:36:54.276Z,95345.00
2023-04-17T10:37:54.291Z,95347.00
2023-04-17T10:38:54.292Z,95343.00
2023-04-17T10:39:54.302Z,95345.00
2023-04-17T10:40:54.951Z,95343.00
2023-04-17T10:41:54.325Z,95341.00
2023-04-17T10:42:54.318Z,95343.00
2023-04-17T10:43:54.372Z,95339.00
2023-04-17T10:44:54.467Z,95341.00
2023-04-17T10:45:54.425Z,95339.00
2023-04-17T10:46:54.478Z,95337.00
2023-04-17T10:47:54.531Z,95343.00
2023-04-17T10:48:54.600Z,95339.00
2023-04-17T10:49:56.459Z,95337.00
2023-04-17T10:50:54.888Z,95339.00
2023-04-17T10:51:54.681Z,95337.00
2023-04-17T10:52:54.709Z,95337.00
2023-04-17T10:53:54.708Z,95337.00
2023-04-17T10:54:54.667Z,95333.00
2023-04-17T10:55:54.835Z,95333.00
2023-04-17T10:56:54.765Z,95337.00
2023-04-17T10:57:54.776Z,95339.00
2023-04-17T10:58:54.836Z,95339.00
2023-04-17T10:59:54.862Z,95337.00
2023-04-17T11:00:54.912Z,95335.00
2023-04-17T11:01:54.996Z,95331.00
2023-04-17T11:02:54.960Z,95331.00
2023-04-17T11:03:54.838Z,95333.00
2023-04-17T11:04:54.853Z,95333.00
2023-04-17T11:05:54.942Z,95333.00
2023-04-17T11:06:55.009Z,95331.00
2023-04-17T11:07:54.952Z,95331.00
2023-04-17T11:08:55.686Z,95331.00
2023-04-17T11:09:54.965Z,95331.00
2023-04-17T11:10:54.974Z,95327.00
2023-04-17T11:11:54.995Z,95331.00
2023-04-17T11:12:54.981Z,95329.00
2023-04-17T11:13:54.983Z,95327.00
2023-04-17T11:14:55.103Z,95327.00
2023-04-17T11:15:55.086Z,95331.00
2023-04-17T11:16:55.498Z,95335.00
2023-04-17T11:17:55.245Z,95333.00
2023-04-17T11:18:55.241Z,95331.00
2023-04-17T11:19:55.319Z,95335.00
2023-04-17T11:20:55.252Z,95329.00
2023-04-17T11:21:55.434Z,95331.00
2023-04-17T11:22:55.397Z,95331.00
2023-04-17T11:23:55.461Z,95331.00
2023-04-17T11:24:55.515Z,95333.00
2023-04-17T11:25:55.652Z,95333.00
2023-04-17T11:26:55.885Z,95337.00
2023-04-17T11:27:55.691Z,95333.00
2023-04-17T11:28:55.668Z,95331.00
2023-04-17T11:29:55.777Z,95335.00
2023-04-17T11:30:55.793Z,95335.00
2023-04-17T11:31:56.020Z,95337.00
2023-04-17T11:32:55.977Z,95341.00
2023-04-17T11:33:55.927Z,95331.00
2023-04-17T11:34:55.851Z,95331.00
2023-04-17T11:35:55.853Z,95331.00
2023-04-17T11:36:56.892Z,95331.00
2023-04-17T11:37:55.933Z,95331.00
2023-04-17T11:38:56.002Z,95333.00
2023-04-17T11:39:55.997Z,95331.00
2023-04-17T11:40:56.155Z,95327.00
2023-04-17T11:41:56.438Z,95329.00
2023-04-17T11:42:56.169Z,95331.00
2023-04-17T11:43:56.116Z,95331.00
2023-04-17T11:44:56.201Z,95333.00
2023-04-17T11:45:56.280Z,95335.00
2023-04-17T11:46:56.525Z,95335.00
2023-04-17T11:47:56.259Z,95333.00